Time;durP1;ratioP1;P1;durP2;ratioP2;P2;SDS_P1;SDS_P2;PMS_P1;PMS_P2;Temp;Humidity;BMP_temperature;BMP_pressure;BME280_temperature;BME280_humidity;BME280_pressure;Samples;Min_cycle;Max_cycle;Signal;HPM_P1;HPM_P2
2021/09/03 00:02:04;;;;;;;9.60;8.70;;;;;;;;;;5067905;28;20249;-85
2021/09/03 00:04:30;;;;;;;9.77;8.40;;;;;;;;;;5046573;28;20205;-86
2021/09/03 00:06:56;;;;;;;8.83;7.47;;;;;;;;;;5047667;28;20189;-86
2021/09/03 00:09:22;;;;;;;10.57;7.87;;;;;;;;;;5024619;28;20289;-86
2021/09/03 00:11:48;;;;;;;8.87;7.97;;;;;;;;;;5043017;28;20197;-86
2021/09/03 00:14:14;;;;;;;10.17;7.70;;;;;;;;;;5042029;28;20173;-86
2021/09/03 00:16:40;;;;;;;9.37;8.37;;;;;;;;;;5043129;28;20708;-86
2021/09/03 00:19:07;;;;;;;9.70;8.60;;;;;;;;;;5022751;28;20581;-86
2021/09/03 00:21:33;;;;;;;10.50;8.40;;;;;;;;;;5035848;28;20174;-86
2021/09/03 00:24:00;;;;;;;11.10;8.67;;;;;;;;;;5038365;28;20174;-86
2021/09/03 00:26:26;;;;;;;8.90;8.00;;;;;;;;;;5036879;28;20224;-86
2021/09/03 00:28:52;;;;;;;9.53;8.57;;;;;;;;;;5035503;28;20166;-86
2021/09/03 00:31:18;;;;;;;8.60;7.70;;;;;;;;;;5016925;28;20249;-86
2021/09/03 00:33:44;;;;;;;8.63;7.10;;;;;;;;;;5027412;28;20170;-86
2021/09/03 00:36:10;;;;;;;8.87;7.97;;;;;;;;;;5019833;28;20185;-86
2021/09/03 00:38:36;;;;;;;11.43;8.07;;;;;;;;;;5019761;28;20560;-86
2021/09/03 00:41:02;;;;;;;8.77;7.87;;;;;;;;;;5025308;28;20185;-86
2021/09/03 00:43:29;;;;;;;8.73;7.93;;;;;;;;;;5019850;28;20182;-86
2021/09/03 00:45:55;;;;;;;11.40;8.53;;;;;;;;;;5020110;28;20213;-85
2021/09/03 00:48:21;;;;;;;8.13;7.33;;;;;;;;;;5019480;28;20177;-86
2021/09/03 00:50:47;;;;;;;9.00;8.10;;;;;;;;;;5018336;28;20202;-86
2021/09/03 00:53:13;;;;;;;8.20;7.37;;;;;;;;;;5019288;28;20182;-86
2021/09/03 00:55:39;;;;;;;10.37;7.37;;;;;;;;;;5018683;28;20177;-85
2021/09/03 00:58:06;;;;;;;10.20;8.67;;;;;;;;;;5019596;28;20193;-85
2021/09/03 01:00:32;;;;;;;8.83;7.93;;;;;;;;;;5013019;28;20234;-85
2021/09/03 01:02:58;;;;;;;10.43;8.17;;;;;;;;;;5018835;28;20252;-86
2021/09/03 01:05:24;;;;;;;9.07;7.37;;;;;;;;;;5000226;28;20209;-86
2021/09/03 01:07:51;;;;;;;8.17;7.37;;;;;;;;;;5015578;28;20252;-86
2021/09/03 01:10:19;;;;;;;9.47;7.77;;;;;;;;;;4998831;28;20186;-86
2021/09/03 01:12:45;;;;;;;10.63;7.60;;;;;;;;;;4999067;28;20594;-86
2021/09/03 01:15:11;;;;;;;8.73;7.80;;;;;;;;;;4997989;28;20651;-86
2021/09/03 01:17:39;;;;;;;7.83;6.87;;;;;;;;;;4997770;28;20195;-86
2021/09/03 01:20:06;;;;;;;8.10;7.33;;;;;;;;;;5015767;28;20189;-86
2021/09/03 01:22:33;;;;;;;11.27;7.50;;;;;;;;;;4998571;28;20182;-86
2021/09/03 01:24:59;;;;;;;7.63;6.90;;;;;;;;;;5015799;28;20633;-86
2021/09/03 01:27:25;;;;;;;8.37;7.57;;;;;;;;;;5014724;28;20179;-86
2021/09/03 01:29:51;;;;;;;7.93;7.23;;;;;;;;;;4997938;28;20178;-86
2021/09/03 01:32:17;;;;;;;8.53;7.73;;;;;;;;;;5011592;28;20389;-86
2021/09/03 01:34:43;;;;;;;8.07;7.30;;;;;;;;;;4994314;28;20214;-86
2021/09/03 01:37:09;;;;;;;7.70;7.00;;;;;;;;;;4999130;28;20232;-86
2021/09/03 01:39:35;;;;;;;8.13;7.13;;;;;;;;;;5000909;28;20513;-86
2021/09/03 01:42:01;;;;;;;8.67;7.73;;;;;;;;;;5019720;28;21058;-86
2021/09/03 01:44:27;;;;;;;9.67;8.20;;;;;;;;;;5001252;28;20221;-86
2021/09/03 01:46:54;;;;;;;9.53;7.63;;;;;;;;;;5018293;28;20223;-86
2021/09/03 01:49:20;;;;;;;8.43;7.70;;;;;;;;;;4996902;28;20206;-86
2021/09/03 01:51:46;;;;;;;10.70;8.53;;;;;;;;;;4981482;28;20179;-86
2021/09/03 01:54:12;;;;;;;10.10;7.23;;;;;;;;;;4997002;28;20178;-85
2021/09/03 01:56:39;;;;;;;8.37;7.57;;;;;;;;;;5005448;28;20182;-86
2021/09/03 01:59:05;;;;;;;8.40;7.50;;;;;;;;;;4996064;28;20537;-85
2021/09/03 02:01:31;;;;;;;9.00;8.10;;;;;;;;;;5012361;28;20218;-86
2021/09/03 02:03:57;;;;;;;12.87;8.53;;;;;;;;;;4995702;28;20542;-86
2021/09/03 02:06:23;;;;;;;8.63;7.82;;;;;;;;;;4995142;28;21051;-85
2021/09/03 02:08:49;;;;;;;8.83;7.63;;;;;;;;;;4995822;28;20185;-85
2021/09/03 02:11:15;;;;;;;9.63;8.63;;;;;;;;;;4993426;28;20180;-85
2021/09/03 02:13:42;;;;;;;13.43;8.13;;;;;;;;;;4989940;28;20171;-85
2021/09/03 02:16:08;;;;;;;7.53;6.83;;;;;;;;;;4999311;28;20201;-86
2021/09/03 02:18:34;;;;;;;8.63;7.63;;;;;;;;;;4996672;28;20174;-85
2021/09/03 02:21:00;;;;;;;9.70;8.67;;;;;;;;;;5013347;28;20202;-85
2021/09/03 02:23:26;;;;;;;8.70;7.77;;;;;;;;;;4996551;28;20185;-85
2021/09/03 02:25:52;;;;;;;9.37;8.07;;;;;;;;;;4996509;28;20232;-86
2021/09/03 02:28:18;;;;;;;9.30;7.67;;;;;;;;;;4996653;28;20181;-86
2021/09/03 02:30:45;;;;;;;8.63;7.77;;;;;;;;;;4996527;28;20273;-85
2021/09/03 02:33:12;;;;;;;8.33;7.53;;;;;;;;;;4996443;28;20186;-85
2021/09/03 02:35:39;;;;;;;8.10;7.30;;;;;;;;;;5013702;28;20173;-85
2021/09/03 02:38:06;;;;;;;8.73;7.83;;;;;;;;;;4996356;28;20191;-85
2021/09/03 02:40:32;;;;;;;9.40;8.40;;;;;;;;;;4997022;28;20197;-85
2021/09/03 02:42:58;;;;;;;8.40;7.57;;;;;;;;;;4997025;28;20182;-85
2021/09/03 02:45:24;;;;;;;8.60;7.77;;;;;;;;;;4996680;28;20202;-85
2021/09/03 02:47:50;;;;;;;13.10;8.70;;;;;;;;;;4996891;28;20175;-85
2021/09/03 02:50:16;;;;;;;9.00;7.60;;;;;;;;;;4996407;28;20205;-85
2021/09/03 02:52:42;;;;;;;9.00;8.10;;;;;;;;;;4996747;28;20368;-85
2021/09/03 02:55:09;;;;;;;8.27;7.43;;;;;;;;;;5007423;28;20214;-86
2021/09/03 02:57:39;;;;;;;9.93;8.10;;;;;;;;;;4993154;28;20621;-86
2021/09/03 03:00:06;;;;;;;8.73;7.87;;;;;;;;;;5007613;28;20227;-85
2021/09/03 03:02:32;;;;;;;10.23;8.23;;;;;;;;;;5042081;28;20247;-85
2021/09/03 03:04:58;;;;;;;8.30;7.50;;;;;;;;;;5016548;28;20228;-85
2021/09/03 03:07:24;;;;;;;8.10;7.20;;;;;;;;;;5016811;28;20212;-85
2021/09/03 03:09:50;;;;;;;8.80;7.53;;;;;;;;;;5015702;28;20182;-85
2021/09/03 03:12:20;;;;;;;9.13;7.80;;;;;;;;;;5032809;28;20277;-85
2021/09/03 03:14:46;;;;;;;8.30;7.50;;;;;;;;;;5033074;28;20202;-86
2021/09/03 03:17:12;;;;;;;14.90;13.60;;;;;;;;;;5016161;28;20181;-85
2021/09/03 03:19:38;;;;;;;9.53;7.63;;;;;;;;;;5016154;28;20272;-85
2021/09/03 03:22:05;;;;;;;10.20;7.93;;;;;;;;;;5016681;28;20185;-85
2021/09/03 03:24:31;;;;;;;9.00;8.10;;;;;;;;;;5015271;28;20714;-85
2021/09/03 03:26:57;;;;;;;9.40;7.87;;;;;;;;;;5016262;28;20645;-85
2021/09/03 03:29:24;;;;;;;10.57;8.23;;;;;;;;;;5015926;28;20178;-85
2021/09/03 03:31:50;;;;;;;14.03;13.03;;;;;;;;;;5016156;28;20193;-85
2021/09/03 03:34:16;;;;;;;9.53;7.70;;;;;;;;;;5033738;28;20166;-85
2021/09/03 03:36:42;;;;;;;8.63;7.77;;;;;;;;;;5015908;28;20177;-85
2021/09/03 03:39:08;;;;;;;8.03;7.30;;;;;;;;;;5033806;28;20181;-85
2021/09/03 03:41:34;;;;;;;9.30;8.17;;;;;;;;;;5032711;28;20182;-85
2021/09/03 03:44:01;;;;;;;7.93;7.17;;;;;;;;;;5016139;28;20223;-85
2021/09/03 03:46:27;;;;;;;8.97;7.93;;;;;;;;;;5000295;28;20236;-85
2021/09/03 03:48:53;;;;;;;8.80;7.90;;;;;;;;;;4999966;28;20170;-86
2021/09/03 03:51:20;;;;;;;8.43;7.57;;;;;;;;;;5036665;28;20182;-85
2021/09/03 03:53:46;;;;;;;8.23;7.37;;;;;;;;;;5015499;28;20188;-86
2021/09/03 03:56:12;;;;;;;9.03;8.17;;;;;;;;;;5015954;28;20211;-85
2021/09/03 03:58:38;;;;;;;8.77;7.60;;;;;;;;;;5016720;28;20205;-86
2021/09/03 04:01:04;;;;;;;9.77;8.77;;;;;;;;;;5015614;28;20721;-86
2021/09/03 04:03:30;;;;;;;9.00;8.10;;;;;;;;;;5033929;28;20525;-85
2021/09/03 04:05:56;;;;;;;10.83;8.70;;;;;;;;;;5008577;28;20208;-86
2021/09/03 04:08:22;;;;;;;9.20;8.30;;;;;;;;;;5020354;28;20182;-85
2021/09/03 04:10:48;;;;;;;9.33;8.17;;;;;;;;;;5023198;28;20170;-86
2021/09/03 04:13:14;;;;;;;10.50;9.27;;;;;;;;;;5022532;28;20204;-85
2021/09/03 04:15:40;;;;;;;10.73;8.93;;;;;;;;;;5026811;28;20490;-85
2021/09/03 04:18:09;;;;;;;11.40;9.20;;;;;;;;;;5020241;28;20174;-84
2021/09/03 04:20:35;;;;;;;10.47;9.47;;;;;;;;;;5038369;28;20194;-84
2021/09/03 04:23:01;;;;;;;9.70;8.73;;;;;;;;;;5036920;28;20643;-85
2021/09/03 04:25:27;;;;;;;10.10;9.10;;;;;;;;;;5020101;28;20197;-85
2021/09/03 04:27:53;;;;;;;10.03;8.07;;;;;;;;;;5018803;28;20546;-85
2021/09/03 04:30:19;;;;;;;9.68;8.52;;;;;;;;;;5007450;28;20873;-85
2021/09/03 04:32:45;;;;;;;8.60;7.80;;;;;;;;;;5014987;28;20285;-85
2021/09/03 04:35:11;;;;;;;9.20;8.20;;;;;;;;;;5016544;28;20240;-85
2021/09/03 04:37:56;;;;;;;10.30;8.03;;;;;;;;;;5035194;28;20181;-84
2021/09/03 04:40:22;;;;;;;11.33;9.50;;;;;;;;;;5017465;28;20180;-85
2021/09/03 04:42:48;;;;;;;11.27;7.30;;;;;;;;;;5017313;28;20186;-84
2021/09/03 04:45:15;;;;;;;9.73;8.20;;;;;;;;;;5017251;28;20719;-84
2021/09/03 04:47:41;;;;;;;9.70;8.43;;;;;;;;;;5035029;28;20273;-85
2021/09/03 04:50:09;;;;;;;8.70;7.80;;;;;;;;;;5033876;28;20196;-84
2021/09/03 04:52:35;;;;;;;10.93;9.93;;;;;;;;;;5017641;28;20182;-87
2021/09/03 04:55:01;;;;;;;9.63;7.97;;;;;;;;;;5016539;28;20316;-84
2021/09/03 04:57:27;;;;;;;9.57;8.57;;;;;;;;;;5016898;28;20189;-86
2021/09/03 04:59:53;;;;;;;8.23;7.30;;;;;;;;;;5017877;28;20174;-86
2021/09/03 05:02:19;;;;;;;10.10;9.03;;;;;;;;;;5018025;28;20170;-86
2021/09/03 05:04:45;;;;;;;8.13;7.33;;;;;;;;;;5016952;28;20217;-86
2021/09/03 05:07:11;;;;;;;9.00;8.10;;;;;;;;;;5027615;28;20205;-87
2021/09/03 05:09:38;;;;;;;8.13;7.40;;;;;;;;;;5035750;28;20689;-86
2021/09/03 05:12:04;;;;;;;9.53;7.83;;;;;;;;;;5018047;28;20174;-87
2021/09/03 05:14:30;;;;;;;8.87;7.97;;;;;;;;;;5016155;28;20282;-86
2021/09/03 05:16:57;;;;;;;8.47;7.67;;;;;;;;;;5016770;28;20182;-86
2021/09/03 05:19:23;;;;;;;10.83;7.37;;;;;;;;;;5017035;28;20316;-86
2021/09/03 05:21:49;;;;;;;9.00;7.53;;;;;;;;;;5017285;28;20180;-86
2021/09/03 05:24:15;;;;;;;9.10;7.40;;;;;;;;;;5016726;28;20572;-86
2021/09/03 05:26:41;;;;;;;9.03;7.77;;;;;;;;;;5016808;28;20613;-86
2021/09/03 05:29:07;;;;;;;8.83;7.97;;;;;;;;;;5016333;28;20675;-86
2021/09/03 05:31:33;;;;;;;8.43;7.37;;;;;;;;;;5016485;28;20178;-86
2021/09/03 05:33:59;;;;;;;8.60;7.70;;;;;;;;;;5016807;28;20277;-86
2021/09/03 05:36:26;;;;;;;8.30;7.50;;;;;;;;;;5017371;28;20180;-86
2021/09/03 05:38:52;;;;;;;8.60;7.70;;;;;;;;;;5017286;28;20281;-86
2021/09/03 05:41:18;;;;;;;8.77;7.77;;;;;;;;;;5033981;28;20215;-87
2021/09/03 05:43:44;;;;;;;7.93;7.13;;;;;;;;;;5017422;28;20195;-85
2021/09/03 05:46:10;;;;;;;9.93;8.53;;;;;;;;;;5011423;28;20568;-86
2021/09/03 05:48:36;;;;;;;9.43;8.53;;;;;;;;;;5017027;28;20181;-86
2021/09/03 05:51:03;;;;;;;10.03;7.73;;;;;;;;;;5029784;28;20212;-86
2021/09/03 05:53:29;;;;;;;10.13;7.80;;;;;;;;;;5033892;28;20170;-85
2021/09/03 05:55:55;;;;;;;9.00;7.50;;;;;;;;;;5023824;28;20272;-86
2021/09/03 05:58:21;;;;;;;9.13;8.00;;;;;;;;;;5015747;28;20182;-86
2021/09/03 06:00:47;;;;;;;7.77;6.97;;;;;;;;;;5026450;28;20223;-86
2021/09/03 06:03:13;;;;;;;8.57;7.77;;;;;;;;;;5034739;28;20190;-86
2021/09/03 06:05:39;;;;;;;9.37;8.40;;;;;;;;;;5015076;28;20216;-86
2021/09/03 06:08:05;;;;;;;9.40;8.40;;;;;;;;;;5032762;28;20200;-86
2021/09/03 06:10:31;;;;;;;8.67;7.87;;;;;;;;;;5015884;28;20231;-86
2021/09/03 06:12:57;;;;;;;11.40;8.37;;;;;;;;;;5015708;28;20178;-83
2021/09/03 06:15:23;;;;;;;12.70;8.93;;;;;;;;;;5045404;28;20182;-87
2021/09/03 06:17:49;;;;;;;12.80;9.57;;;;;;;;;;5032873;28;20166;-85
2021/09/03 06:20:15;;;;;;;11.57;9.60;;;;;;;;;;5015011;28;20181;-85
2021/09/03 06:22:42;;;;;;;11.27;10.10;;;;;;;;;;5032649;28;20609;-87
2021/09/03 06:25:08;;;;;;;10.70;9.67;;;;;;;;;;5015526;28;20615;-86
2021/09/03 06:27:34;;;;;;;11.83;10.63;;;;;;;;;;5033605;28;20169;-86
2021/09/03 06:30:00;;;;;;;16.10;9.87;;;;;;;;;;5015844;28;20174;-86
2021/09/03 06:32:28;;;;;;;10.70;9.60;;;;;;;;;;5032928;28;20237;-86
2021/09/03 06:34:55;;;;;;;10.43;9.33;;;;;;;;;;5015259;28;20269;-86
2021/09/03 06:37:22;;;;;;;11.30;10.03;;;;;;;;;;5016767;28;20177;-85
2021/09/03 06:39:49;;;;;;;11.73;9.53;;;;;;;;;;5016108;28;20182;-86
2021/09/03 06:42:15;;;;;;;12.10;9.90;;;;;;;;;;5015892;28;20178;-86
2021/09/03 06:44:42;;;;;;;10.40;9.03;;;;;;;;;;5014336;28;20209;-86
2021/09/03 06:47:08;;;;;;;10.73;9.63;;;;;;;;;;5016254;28;20186;-85
2021/09/03 06:49:35;;;;;;;13.43;9.27;;;;;;;;;;5016034;28;20200;-86
2021/09/03 06:52:01;;;;;;;12.97;9.70;;;;;;;;;;5033577;28;20260;-86
2021/09/03 06:54:27;;;;;;;12.07;9.00;;;;;;;;;;5015827;28;20740;-87
2021/09/03 06:56:53;;;;;;;15.77;9.50;;;;;;;;;;5015308;28;20247;-88
2021/09/03 06:59:19;;;;;;;9.87;8.57;;;;;;;;;;5016056;28;20181;-88
2021/09/03 07:01:45;;;;;;;9.47;8.57;;;;;;;;;;5031792;28;20217;-88
2021/09/03 07:04:11;;;;;;;12.43;9.23;;;;;;;;;;5015311;28;20192;-88
2021/09/03 07:06:38;;;;;;;9.33;8.23;;;;;;;;;;5031757;28;20213;-87
2021/09/03 07:09:05;;;;;;;10.27;8.57;;;;;;;;;;5015518;28;20188;-88
2021/09/03 07:11:31;;;;;;;10.37;8.70;;;;;;;;;;5009842;28;20178;-88
2021/09/03 07:13:58;;;;;;;14.93;8.27;;;;;;;;;;5009152;28;20185;-88
2021/09/03 07:16:24;;;;;;;11.23;8.60;;;;;;;;;;5015317;28;20271;-88
2021/09/03 07:18:50;;;;;;;9.50;8.07;;;;;;;;;;5015343;28;20204;-87
2021/09/03 07:21:16;;;;;;;9.03;8.10;;;;;;;;;;5009990;28;20181;-87
2021/09/03 07:23:42;;;;;;;9.53;8.13;;;;;;;;;;5017644;28;20606;-86
2021/09/03 07:26:08;;;;;;;8.93;8.07;;;;;;;;;;5017509;28;20209;-87
2021/09/03 07:28:34;;;;;;;10.53;8.60;;;;;;;;;;5033471;28;20170;-87
2021/09/03 07:31:00;;;;;;;9.07;8.13;;;;;;;;;;5021571;28;20186;-87
2021/09/03 07:33:26;;;;;;;9.97;8.53;;;;;;;;;;5016412;28;20660;-87
2021/09/03 07:35:52;;;;;;;9.43;8.43;;;;;;;;;;5027220;28;20189;-87
2021/09/03 07:38:19;;;;;;;9.47;8.43;;;;;;;;;;5045609;28;20193;-87
2021/09/03 07:40:45;;;;;;;12.00;8.03;;;;;;;;;;5018911;28;20209;-87
2021/09/03 07:43:13;;;;;;;8.77;7.97;;;;;;;;;;5019559;28;20178;-82
2021/09/03 07:45:40;;;;;;;9.50;8.60;;;;;;;;;;5038839;28;20228;-82
2021/09/03 07:48:06;;;;;;;10.33;9.23;;;;;;;;;;5021354;28;20269;-82
2021/09/03 07:50:33;;;;;;;9.83;8.50;;;;;;;;;;5027563;28;20186;-82
2021/09/03 07:53:02;;;;;;;9.63;8.33;;;;;;;;;;5037535;28;20656;-82
2021/09/03 07:55:29;;;;;;;10.63;8.30;;;;;;;;;;5036416;28;20548;-82
2021/09/03 07:57:55;;;;;;;9.07;8.13;;;;;;;;;;5018259;28;20193;-82
2021/09/03 08:00:21;;;;;;;11.30;8.73;;;;;;;;;;5036323;28;20226;-82
2021/09/03 08:02:47;;;;;;;9.37;8.13;;;;;;;;;;5036206;28;20186;-82
2021/09/03 08:05:13;;;;;;;11.30;8.47;;;;;;;;;;5035521;28;20206;-82
2021/09/03 08:07:42;;;;;;;12.27;8.47;;;;;;;;;;5036118;28;20289;-82
2021/09/03 08:10:09;;;;;;;9.73;8.73;;;;;;;;;;5035658;28;20205;-82
2021/09/03 08:12:35;;;;;;;9.00;7.63;;;;;;;;;;5035820;28;20596;-83
2021/09/03 08:15:02;;;;;;;9.73;8.73;;;;;;;;;;5018401;28;20573;-83
2021/09/03 08:17:28;;;;;;;8.80;7.70;;;;;;;;;;5018624;28;20192;-83
2021/09/03 08:19:54;;;;;;;8.70;7.80;;;;;;;;;;5035042;28;20182;-82
2021/09/03 08:22:20;;;;;;;9.10;8.20;;;;;;;;;;5027386;28;20535;-82
2021/09/03 08:24:46;;;;;;;10.77;7.53;;;;;;;;;;5035847;28;20247;-82
2021/09/03 08:27:12;;;;;;;10.67;7.70;;;;;;;;;;5036685;28;20587;-82
2021/09/03 08:29:38;;;;;;;8.33;7.50;;;;;;;;;;5034997;28;20244;-81
2021/09/03 08:32:04;;;;;;;7.50;6.80;;;;;;;;;;5018041;28;20182;-81
2021/09/03 08:34:31;;;;;;;7.10;6.40;;;;;;;;;;5016889;28;20170;-81
2021/09/03 08:36:57;;;;;;;8.40;7.10;;;;;;;;;;5036121;28;20209;-82
2021/09/03 08:39:23;;;;;;;10.10;6.93;;;;;;;;;;5018218;28;20202;-81
2021/09/03 08:41:50;;;;;;;8.17;6.10;;;;;;;;;;5035487;28;20171;-82
2021/09/03 08:44:16;;;;;;;6.83;6.10;;;;;;;;;;5017723;28;20178;-81
2021/09/03 08:46:44;;;;;;;7.37;6.67;;;;;;;;;;5037093;28;20222;-81
2021/09/03 08:49:10;;;;;;;7.93;6.43;;;;;;;;;;5034293;28;20208;-82
2021/09/03 08:51:36;;;;;;;7.30;5.80;;;;;;;;;;5016948;28;20182;-81
2021/09/03 08:54:02;;;;;;;6.63;6.00;;;;;;;;;;5018163;28;20201;-86
2021/09/03 08:56:29;;;;;;;7.27;6.30;;;;;;;;;;5017622;28;20182;-86
2021/09/03 08:58:55;;;;;;;9.53;6.43;;;;;;;;;;5017834;28;20185;-86
2021/09/03 09:01:21;;;;;;;7.17;5.93;;;;;;;;;;5021187;28;20246;-87
2021/09/03 09:03:48;;;;;;;11.90;6.17;;;;;;;;;;5017086;28;20254;-87
2021/09/03 09:06:27;;;;;;;8.20;6.37;;;;;;;;;;5017734;28;20324;-87
2021/09/03 09:08:59;;;;;;;8.03;6.50;;;;;;;;;;5034069;28;20173;-87
2021/09/03 09:11:27;;;;;;;8.47;6.33;;;;;;;;;;5034163;28;20228;-87
2021/09/03 09:13:56;;;;;;;7.90;6.67;;;;;;;;;;5016930;28;20178;-82
2021/09/03 09:16:25;;;;;;;11.43;7.17;;;;;;;;;;5033806;28;20179;-82
2021/09/03 09:18:55;;;;;;;10.27;7.30;;;;;;;;;;5006585;28;20253;-82
2021/09/03 09:21:23;;;;;;;8.33;7.37;;;;;;;;;;5032667;28;20213;-81
2021/09/03 09:23:53;;;;;;;19.73;7.43;;;;;;;;;;5016059;28;20254;-81
2021/09/03 09:26:21;;;;;;;7.87;7.10;;;;;;;;;;5016460;28;20228;-81
2021/09/03 09:28:47;;;;;;;8.93;7.10;;;;;;;;;;5034680;28;20170;-80
2021/09/03 09:31:26;;;;;;;10.03;7.63;;;;;;;;;;5016232;28;20178;-80
2021/09/03 09:33:53;;;;;;;8.70;7.90;;;;;;;;;;5013954;28;20566;-80
2021/09/03 09:36:19;;;;;;;747.37;59.80;;;;;;;;;;5000121;28;20186;-81
2021/09/03 09:38:46;;;;;;;88.30;12.70;;;;;;;;;;5016286;28;20193;-80
2021/09/03 09:41:14;;;;;;;39.47;11.13;;;;;;;;;;5033685;28;20269;-82
2021/09/03 09:43:42;;;;;;;19.70;8.67;;;;;;;;;;5016205;28;20201;-81
2021/09/03 09:46:07;;;;;;;12.33;7.30;;;;;;;;;;5017868;28;20272;-81
2021/09/03 09:48:57;;;;;;;22.00;7.37;;;;;;;;;;5024246;28;20179;-81
2021/09/03 09:51:24;;;;;;;8.20;6.63;;;;;;;;;;5007827;28;20683;-81
2021/09/03 09:53:53;;;;;;;14.60;7.27;;;;;;;;;;5015900;28;20180;-82
2021/09/03 09:56:21;;;;;;;8.43;7.07;;;;;;;;;;5031327;28;20906;-81
2021/09/03 09:58:48;;;;;;;9.63;6.80;;;;;;;;;;5034165;28;20559;-81
2021/09/03 10:01:14;;;;;;;7.63;6.90;;;;;;;;;;5033253;28;20222;-81
2021/09/03 10:03:41;;;;;;;8.73;7.20;;;;;;;;;;5014112;28;20178;-82
2021/09/03 10:06:07;;;;;;;45.50;8.37;;;;;;;;;;5014546;28;20214;-82
2021/09/03 10:08:33;;;;;;;37.33;9.83;;;;;;;;;;5016143;28;20177;-82
2021/09/03 10:10:59;;;;;;;8.63;6.67;;;;;;;;;;5029754;28;20265;-82
2021/09/03 10:13:25;;;;;;;9.82;7.03;;;;;;;;;;5038791;28;20430;-81
2021/09/03 10:15:51;;;;;;;21.40;8.03;;;;;;;;;;5017319;28;20180;-84
2021/09/03 10:18:17;;;;;;;13.97;7.97;;;;;;;;;;5016393;28;20178;-83
2021/09/03 10:20:43;;;;;;;15.73;7.20;;;;;;;;;;5034435;28;20181;-81
2021/09/03 10:23:09;;;;;;;8.30;6.80;;;;;;;;;;5052912;28;20232;-80
2021/09/03 10:25:54;;;;;;;9.43;7.47;;;;;;;;;;5019877;28;20538;-80
2021/09/03 10:28:26;;;;;;;8.80;6.90;;;;;;;;;;5018875;28;20184;-80
2021/09/03 10:31:08;;;;;;;7.63;6.93;;;;;;;;;;5037371;28;20178;-80
2021/09/03 10:33:35;;;;;;;8.47;7.60;;;;;;;;;;5036856;28;20517;-80
2021/09/03 10:36:01;;;;;;;9.87;8.87;;;;;;;;;;5033455;28;20177;-79
2021/09/03 10:38:31;;;;;;;7.73;6.93;;;;;;;;;;5016917;28;20174;-79
2021/09/03 10:40:58;;;;;;;9.53;8.10;;;;;;;;;;5017337;28;20186;-79
2021/09/03 10:43:43;;;;;;;10.20;9.00;;;;;;;;;;5016209;28;20204;-79
2021/09/03 10:46:11;;;;;;;9.37;7.57;;;;;;;;;;5020931;28;20205;-79
2021/09/03 10:48:37;;;;;;;8.17;6.77;;;;;;;;;;5032776;28;20193;-79
2021/09/03 10:51:04;;;;;;;7.30;6.60;;;;;;;;;;5035171;28;20178;-78
2021/09/03 10:53:35;;;;;;;6.87;6.27;;;;;;;;;;5036442;28;20236;-79
2021/09/03 10:56:13;;;;;;;8.13;6.60;;;;;;;;;;5014510;28;20377;-79
2021/09/03 10:58:41;;;;;;;7.53;6.20;;;;;;;;;;5037268;28;20593;-79
2021/09/03 11:01:10;;;;;;;8.33;6.93;;;;;;;;;;5035016;28;20221;-79
2021/09/03 11:03:46;;;;;;;7.73;6.97;;;;;;;;;;5037277;28;20185;-79
2021/09/03 11:06:32;;;;;;;8.90;6.90;;;;;;;;;;5035662;28;20223;-79
2021/09/03 11:09:02;;;;;;;6.70;6.10;;;;;;;;;;5039222;28;20419;-79
2021/09/03 11:11:30;;;;;;;7.90;6.97;;;;;;;;;;5016063;28;20248;-79
2021/09/03 11:14:00;;;;;;;34.37;8.70;;;;;;;;;;5023199;28;20174;-80
2021/09/03 11:16:33;;;;;;;14.70;7.57;;;;;;;;;;5024076;28;20193;-80
2021/09/03 11:19:06;;;;;;;7.07;5.70;;;;;;;;;;5025403;28;20182;-80
2021/09/03 11:21:34;;;;;;;7.70;5.97;;;;;;;;;;5040347;28;20178;-80
2021/09/03 11:24:00;;;;;;;8.27;6.33;;;;;;;;;;5044095;28;20241;-80
2021/09/03 11:26:28;;;;;;;7.20;6.47;;;;;;;;;;5026467;28;20338;-80
2021/09/03 11:28:55;;;;;;;7.07;5.47;;;;;;;;;;5024774;28;20243;-80
2021/09/03 11:31:21;;;;;;;7.50;5.70;;;;;;;;;;5040946;28;20264;-80
2021/09/03 11:33:47;;;;;;;6.97;6.37;;;;;;;;;;5026499;28;20174;-80
2021/09/03 11:36:13;;;;;;;8.37;5.97;;;;;;;;;;5024075;28;20190;-81
2021/09/03 11:38:40;;;;;;;6.53;5.93;;;;;;;;;;5024684;28;20178;-80
2021/09/03 11:41:10;;;;;;;6.53;6.00;;;;;;;;;;5022565;28;20320;-80
2021/09/03 11:43:36;;;;;;;7.17;6.53;;;;;;;;;;5004506;28;20198;-80
2021/09/03 11:46:14;;;;;;;5.90;5.40;;;;;;;;;;5042094;28;20197;-81
2021/09/03 11:48:40;;;;;;;9.67;6.10;;;;;;;;;;5042292;28;20193;-80
2021/09/03 11:51:06;;;;;;;7.40;6.70;;;;;;;;;;5031348;28;20193;-80
2021/09/03 11:53:34;;;;;;;6.80;6.10;;;;;;;;;;5026932;28;20171;-79
2021/09/03 11:56:00;;;;;;;8.20;7.17;;;;;;;;;;5017781;28;20276;-79
2021/09/03 11:58:27;;;;;;;8.43;6.50;;;;;;;;;;5023423;28;20186;-82
2021/09/03 12:00:55;;;;;;;8.43;6.63;;;;;;;;;;5015466;28;20546;-79
2021/09/03 12:03:22;;;;;;;8.20;7.33;;;;;;;;;;5000006;28;20201;-79
2021/09/03 12:05:52;;;;;;;8.33;6.37;;;;;;;;;;5016912;28;20232;-80
2021/09/03 12:08:26;;;;;;;7.60;6.83;;;;;;;;;;4999932;28;20183;-79
2021/09/03 12:10:59;;;;;;;8.13;6.00;;;;;;;;;;4990151;28;20194;-80
2021/09/03 12:13:30;;;;;;;6.70;6.10;;;;;;;;;;4994776;28;20290;-80
2021/09/03 12:15:57;;;;;;;7.10;6.40;;;;;;;;;;5000077;28;20193;-80
2021/09/03 12:18:28;;;;;;;8.40;7.17;;;;;;;;;;4999306;28;20219;-81
2021/09/03 12:20:56;;;;;;;7.10;6.40;;;;;;;;;;4999092;28;20179;-82
2021/09/03 12:23:22;;;;;;;7.70;6.93;;;;;;;;;;4998992;28;20282;-81
2021/09/03 12:25:48;;;;;;;12.90;6.40;;;;;;;;;;5016869;28;20203;-82
2021/09/03 12:28:19;;;;;;;6.70;6.10;;;;;;;;;;4996171;28;20210;-80
2021/09/03 12:30:50;;;;;;;6.90;6.20;;;;;;;;;;5001925;28;20171;-80
2021/09/03 12:33:22;;;;;;;8.47;7.00;;;;;;;;;;5003352;28;20185;-79
2021/09/03 12:35:49;;;;;;;7.27;6.57;;;;;;;;;;5003885;28;20198;-80
2021/09/03 12:38:15;;;;;;;7.90;6.63;;;;;;;;;;4998944;28;20208;-80
2021/09/03 12:40:42;;;;;;;6.53;5.93;;;;;;;;;;5013765;28;20195;-80
2021/09/03 12:43:12;;;;;;;7.30;6.53;;;;;;;;;;4975885;28;20190;-80
2021/09/03 12:45:42;;;;;;;7.40;6.23;;;;;;;;;;5016153;28;20290;-79
2021/09/03 12:48:08;;;;;;;9.37;6.63;;;;;;;;;;5002700;28;20255;-79
2021/09/03 12:50:34;;;;;;;7.03;6.40;;;;;;;;;;5019421;28;20179;-79
2021/09/03 12:53:00;;;;;;;7.67;7.00;;;;;;;;;;5019648;28;20177;-79
2021/09/03 12:55:26;;;;;;;8.40;6.40;;;;;;;;;;5003597;28;20210;-79
2021/09/03 12:57:52;;;;;;;9.13;6.30;;;;;;;;;;5002134;28;20197;-79
2021/09/03 13:00:18;;;;;;;6.90;6.30;;;;;;;;;;5024493;28;20221;-79
2021/09/03 13:02:44;;;;;;;7.10;6.50;;;;;;;;;;5020223;28;20185;-79
2021/09/03 13:05:11;;;;;;;7.87;7.07;;;;;;;;;;5036923;28;20224;-79
2021/09/03 13:07:37;;;;;;;8.13;6.17;;;;;;;;;;5018333;28;20211;-80
2021/09/03 13:10:03;;;;;;;7.23;6.53;;;;;;;;;;5017905;28;20314;-79
2021/09/03 13:12:29;;;;;;;7.00;6.17;;;;;;;;;;5036734;28;20187;-80
2021/09/03 13:14:55;;;;;;;7.33;6.33;;;;;;;;;;5019450;28;20275;-80
2021/09/03 13:17:21;;;;;;;8.63;7.73;;;;;;;;;;5019497;28;20181;-78
2021/09/03 13:19:48;;;;;;;8.23;7.43;;;;;;;;;;5035714;28;20192;-79
2021/09/03 13:22:15;;;;;;;8.30;6.93;;;;;;;;;;5036804;28;20165;-78
2021/09/03 13:24:41;;;;;;;7.23;6.43;;;;;;;;;;5038140;28;20186;-79
2021/09/03 13:27:08;;;;;;;8.23;6.73;;;;;;;;;;5020941;28;20181;-79
2021/09/03 13:29:34;;;;;;;8.70;7.80;;;;;;;;;;5038174;28;20286;-78
2021/09/03 13:32:00;;;;;;;9.67;6.87;;;;;;;;;;5036327;28;20205;-79
2021/09/03 13:34:28;;;;;;;6.47;5.77;;;;;;;;;;5033214;28;20264;-78
2021/09/03 13:36:54;;;;;;;8.50;6.90;;;;;;;;;;5030267;28;20184;-79
2021/09/03 13:39:20;;;;;;;7.20;6.50;;;;;;;;;;5029968;28;20182;-77
2021/09/03 13:41:46;;;;;;;7.67;6.23;;;;;;;;;;5012999;28;20324;-78
2021/09/03 13:44:12;;;;;;;6.33;5.73;;;;;;;;;;5032955;28;20291;-78
2021/09/03 13:46:38;;;;;;;6.97;6.37;;;;;;;;;;5031633;28;20206;-79
2021/09/03 13:49:06;;;;;;;8.93;6.67;;;;;;;;;;5018014;28;20178;-79
2021/09/03 13:51:32;;;;;;;6.90;6.20;;;;;;;;;;5032653;28;20170;-78
2021/09/03 13:53:58;;;;;;;10.10;7.30;;;;;;;;;;5010535;28;20175;-79
2021/09/03 13:56:24;;;;;;;7.73;7.03;;;;;;;;;;5014936;28;20339;-79
2021/09/03 13:58:58;;;;;;;8.37;7.47;;;;;;;;;;5105637;27;20651;-59
2021/09/03 14:01:24;;;;;;;8.23;7.43;;;;;;;;;;5095369;28;20175;-61
2021/09/03 14:03:51;;;;;;;13.70;7.27;;;;;;;;;;5104444;28;20182;-59
2021/09/03 14:06:19;;;;;;;7.67;6.97;;;;;;;;;;5104650;28;20180;-59
2021/09/03 14:08:45;;;;;;;12.23;7.03;;;;;;;;;;5105120;28;20267;-59
2021/09/03 14:11:11;;;;;;;7.77;6.90;;;;;;;;;;5104932;28;20600;-59
2021/09/03 14:13:37;;;;;;;8.20;7.40;;;;;;;;;;5104756;28;20506;-60
2021/09/03 14:16:04;;;;;;;7.93;7.10;;;;;;;;;;5104011;28;20300;-59
2021/09/03 14:18:30;;;;;;;10.23;8.00;;;;;;;;;;5105132;28;20657;-59
2021/09/03 14:20:56;;;;;;;8.63;7.30;;;;;;;;;;5105655;28;20170;-59
2021/09/03 14:23:22;;;;;;;13.60;8.20;;;;;;;;;;5093811;28;20184;-59
2021/09/03 14:25:50;;;;;;;7.70;6.90;;;;;;;;;;5095704;28;20190;-59
2021/09/03 14:28:16;;;;;;;7.53;6.47;;;;;;;;;;5116484;28;20291;-59
2021/09/03 14:30:42;;;;;;;8.10;7.30;;;;;;;;;;5103759;28;20215;-59
2021/09/03 14:33:08;;;;;;;8.67;7.80;;;;;;;;;;5103378;28;20217;-59
2021/09/03 14:35:34;;;;;;;10.20;9.17;;;;;;;;;;5099271;28;20259;-59
2021/09/03 14:38:00;;;;;;;8.40;7.57;;;;;;;;;;5095919;28;20200;-59